createdAt,value
2018-04-22T00:00:34.035Z,0.00
2018-04-22T00:01:34.062Z,0.00
2018-04-22T00:02:34.089Z,0.00
2018-04-22T00:03:34.116Z,0.00
2018-04-22T00:04:34.143Z,0.00
2018-04-22T00:05:34.169Z,0.00
2018-04-22T00:06:34.197Z,0.00
2018-04-22T00:07:34.224Z,0.00
2018-04-22T00:08:34.251Z,0.00
2018-04-22T00:09:34.276Z,0.00
2018-04-22T00:10:34.304Z,0.00
2018-04-22T00:11:34.334Z,0.00
2018-04-22T00:12:34.359Z,0.00
2018-04-22T00:13:34.383Z,0.00
2018-04-22T00:14:34.411Z,0.00
2018-04-22T00:15:34.439Z,0.00
2018-04-22T00:16:34.465Z,0.00
2018-04-22T00:17:34.492Z,0.00
2018-04-22T00:18:34.519Z,0.00
2018-04-22T00:19:34.571Z,0.00
2018-04-22T00:20:34.573Z,0.00
2018-04-22T00:21:34.600Z,0.00
2018-04-22T00:22:34.627Z,0.00
2018-04-22T00:23:34.654Z,0.00
2018-04-22T00:24:34.682Z,0.00
2018-04-22T00:25:34.707Z,0.00
2018-04-22T00:26:34.734Z,0.00
2018-04-22T00:27:34.761Z,0.00
2018-04-22T00:28:34.788Z,0.00
2018-04-22T00:29:34.815Z,0.00
2018-04-22T00:30:34.842Z,0.00
2018-04-22T00:31:34.869Z,0.00
2018-04-22T00:32:34.896Z,0.00
2018-04-22T00:33:34.922Z,0.00
2018-04-22T00:34:34.973Z,0.00
2018-04-22T00:35:34.977Z,0.00
2018-04-22T00:36:35.004Z,0.00
2018-04-22T00:37:35.030Z,0.00
2018-04-22T00:38:35.057Z,0.00
2018-04-22T00:39:35.084Z,0.00
2018-04-22T00:40:35.149Z,0.00
2018-04-22T00:41:35.138Z,0.00
2018-04-22T00:42:35.166Z,0.00
2018-04-22T00:43:35.250Z,0.00
2018-04-22T00:44:35.223Z,0.00
2018-04-22T00:45:35.245Z,0.00
2018-04-22T00:46:35.273Z,0.00
2018-04-22T00:47:35.299Z,0.00
2018-04-22T00:48:35.328Z,0.00
2018-04-22T00:49:35.354Z,0.00
2018-04-22T00:50:35.381Z,0.00
2018-04-22T00:51:35.409Z,0.00
2018-04-22T00:52:35.440Z,0.00
2018-04-22T00:53:35.462Z,0.00
2018-04-22T00:54:35.492Z,0.00
2018-04-22T00:55:35.516Z,0.00
2018-04-22T00:56:35.543Z,0.00
2018-04-22T00:57:35.571Z,0.00
2018-04-22T00:58:35.597Z,0.00
2018-04-22T00:59:35.624Z,0.00
2018-04-22T01:00:35.651Z,0.00
2018-04-22T01:01:35.678Z,0.00
2018-04-22T01:02:35.720Z,0.00
2018-04-22T01:03:35.742Z,0.00
2018-04-22T01:04:35.760Z,0.00
2018-04-22T01:05:35.785Z,0.00
2018-04-22T01:06:35.813Z,0.00
2018-04-22T01:07:35.845Z,0.00
2018-04-22T01:08:35.866Z,0.00
2018-04-22T01:09:35.892Z,0.00
2018-04-22T01:10:35.921Z,0.00
2018-04-22T01:11:35.946Z,0.00
2018-04-22T01:12:35.974Z,0.00
2018-04-22T01:13:36.000Z,0.00
2018-04-22T01:14:36.027Z,0.00
2018-04-22T01:15:36.060Z,0.00
2018-04-22T01:16:36.081Z,0.00
2018-04-22T01:17:36.111Z,0.00
2018-04-22T01:18:36.135Z,0.00
2018-04-22T01:19:36.161Z,0.00
2018-04-22T01:20:36.189Z,0.00
2018-04-22T01:21:36.216Z,0.00
2018-04-22T01:22:36.256Z,0.00
2018-04-22T01:23:36.274Z,0.00
2018-04-22T01:24:36.298Z,0.00
2018-04-22T01:25:36.332Z,0.00
2018-04-22T01:26:36.353Z,0.00
2018-04-22T01:27:36.380Z,0.00
2018-04-22T01:28:36.407Z,0.00
2018-04-22T01:29:36.438Z,0.00
2018-04-22T01:30:36.470Z,0.00
2018-04-22T01:31:36.488Z,0.00
2018-04-22T01:32:36.516Z,0.00
2018-04-22T01:33:36.544Z,0.00
2018-04-22T01:34:36.570Z,0.00
2018-04-22T01:35:36.597Z,0.00
2018-04-22T01:36:36.624Z,0.00
2018-04-22T01:37:36.651Z,0.00
2018-04-22T01:38:36.677Z,0.00
2018-04-22T01:39:36.704Z,0.00
2018-04-22T01:40:36.732Z,0.00
2018-04-22T01:41:36.758Z,0.00
2018-04-22T01:42:36.786Z,0.00
2018-04-22T01:43:36.812Z,0.00
2018-04-22T01:44:36.840Z,0.00
2018-04-22T01:45:36.910Z,0.00
2018-04-22T01:46:36.894Z,0.00
2018-04-22T01:47:36.920Z,0.00
2018-04-22T01:48:36.961Z,0.00
2018-04-22T01:49:36.977Z,0.00
2018-04-22T01:50:37.042Z,0.00
2018-04-22T01:51:37.028Z,0.00
2018-04-22T01:52:37.057Z,0.00
2018-04-22T01:53:37.081Z,0.00
2018-04-22T01:54:37.109Z,0.00
2018-04-22T01:55:37.136Z,0.00
2018-04-22T01:56:37.162Z,0.00
2018-04-22T01:57:37.187Z,0.00
2018-04-22T01:58:37.215Z,0.00
2018-04-22T01:59:37.242Z,0.00
2018-04-22T02:00:37.279Z,0.00
2018-04-22T02:01:37.295Z,0.00
2018-04-22T02:02:37.322Z,0.00
2018-04-22T02:03:37.351Z,0.00
2018-04-22T02:04:37.377Z,0.00
2018-04-22T02:05:37.406Z,0.00
2018-04-22T02:06:37.433Z,0.00
2018-04-22T02:07:37.456Z,0.00
2018-04-22T02:08:37.483Z,0.00
2018-04-22T02:09:37.509Z,0.00
2018-04-22T02:10:37.536Z,0.00
2018-04-22T02:11:37.564Z,0.00
2018-04-22T02:12:37.591Z,0.00
2018-04-22T02:13:37.616Z,0.00
2018-04-22T02:14:37.644Z,0.00
2018-04-22T02:15:37.671Z,0.00
2018-04-22T02:16:37.699Z,0.00
2018-04-22T02:17:37.724Z,0.00
2018-04-22T02:18:37.753Z,0.00
2018-04-22T02:19:37.779Z,0.00
2018-04-22T02:20:37.805Z,0.00
2018-04-22T02:21:37.838Z,0.00
2018-04-22T02:22:37.859Z,0.00
2018-04-22T02:23:37.885Z,0.00
2018-04-22T02:24:37.912Z,0.00
2018-04-22T02:25:37.938Z,0.00
2018-04-22T02:26:37.966Z,0.00
2018-04-22T02:27:37.993Z,0.00
2018-04-22T02:28:38.021Z,0.00
2018-04-22T02:29:38.046Z,0.00
2018-04-22T02:30:38.074Z,0.00
2018-04-22T02:31:38.100Z,0.00
2018-04-22T02:32:38.126Z,0.00
2018-04-22T02:33:38.153Z,0.00
2018-04-22T02:34:38.180Z,0.00
2018-04-22T02:35:38.206Z,0.00
2018-04-22T02:36:38.234Z,0.00
2018-04-22T02:37:38.260Z,0.00
2018-04-22T02:38:38.286Z,0.00
2018-04-22T02:39:38.313Z,0.00
2018-04-22T02:40:38.341Z,0.00
2018-04-22T02:41:38.367Z,0.00
2018-04-22T02:42:38.394Z,0.00
2018-04-22T02:43:38.446Z,0.00
2018-04-22T02:44:38.447Z,0.00
2018-04-22T02:45:38.497Z,0.00
2018-04-22T02:46:38.501Z,0.00
2018-04-22T02:47:38.528Z,0.00
2018-04-22T02:48:38.554Z,0.00
2018-04-22T02:49:38.580Z,0.00
2018-04-22T02:50:38.609Z,0.00
2018-04-22T02:51:38.635Z,0.00
2018-04-22T02:52:38.662Z,0.00
2018-04-22T02:53:38.688Z,0.00
2018-04-22T02:54:38.724Z,0.00
2018-04-22T02:55:38.742Z,0.00
2018-04-22T02:56:38.769Z,0.00
2018-04-22T02:57:38.795Z,0.00
2018-04-22T02:58:38.822Z,0.00
2018-04-22T02:59:38.849Z,0.00
2018-04-22T03:00:38.876Z,0.00
2018-04-22T03:01:38.902Z,0.00
2018-04-22T03:02:38.929Z,0.00
2018-04-22T03:03:38.956Z,0.00
2018-04-22T03:04:38.988Z,0.00
2018-04-22T03:05:39.009Z,0.00
2018-04-22T03:06:39.037Z,0.00
2018-04-22T03:07:39.063Z,0.00
2018-04-22T03:08:39.091Z,0.00
2018-04-22T03:09:39.117Z,0.00
2018-04-22T03:10:39.143Z,0.00
2018-04-22T03:11:39.171Z,0.00
2018-04-22T03:12:39.197Z,0.00
2018-04-22T03:13:39.223Z,0.00
2018-04-22T03:14:39.253Z,0.00
2018-04-22T03:15:39.277Z,0.00
2018-04-22T03:16:39.304Z,0.00
2018-04-22T03:17:39.330Z,0.00
2018-04-22T03:18:39.358Z,0.00
2018-04-22T03:19:39.429Z,0.00
2018-04-22T03:20:39.412Z,0.00
2018-04-22T03:21:39.438Z,0.00
2018-04-22T03:22:39.475Z,0.00
2018-04-22T03:23:39.505Z,0.00
2018-04-22T03:24:39.519Z,0.00
2018-04-22T03:25:39.547Z,0.00
2018-04-22T03:26:39.572Z,0.00
2018-04-22T03:27:39.600Z,0.00
2018-04-22T03:28:39.626Z,0.00
2018-04-22T03:29:39.652Z,0.00
2018-04-22T03:30:39.681Z,0.00
2018-04-22T03:31:39.717Z,0.00
2018-04-22T03:32:39.733Z,0.00
2018-04-22T03:33:39.760Z,0.00
2018-04-22T03:34:39.787Z,0.00
2018-04-22T03:35:39.814Z,5.63
2018-04-22T03:36:39.846Z,5.63
2018-04-22T03:37:39.867Z,5.63
2018-04-22T03:38:39.894Z,5.63
2018-04-22T03:39:39.922Z,5.63
2018-04-22T03:40:39.950Z,5.63
2018-04-22T03:41:39.976Z,5.63
2018-04-22T03:42:40.003Z,5.63
2018-04-22T03:43:40.030Z,5.63
2018-04-22T03:44:40.057Z,5.63
2018-04-22T03:45:40.117Z,5.63
2018-04-22T03:46:40.110Z,5.63
2018-04-22T03:47:40.137Z,5.63
2018-04-22T03:48:40.167Z,5.63
2018-04-22T03:49:40.191Z,5.63
2018-04-22T03:50:40.218Z,5.63
2018-04-22T03:51:40.249Z,5.63
2018-04-22T03:52:40.272Z,5.63
2018-04-22T03:53:40.299Z,5.63
2018-04-22T03:54:40.325Z,5.63
2018-04-22T03:55:40.353Z,5.63
2018-04-22T03:56:40.429Z,5.63
2018-04-22T03:57:40.440Z,5.63
2018-04-22T03:58:40.436Z,5.63
2018-04-22T03:59:40.460Z,5.63
2018-04-22T04:00:40.488Z,5.63
2018-04-22T04:01:40.514Z,5.63
2018-04-22T04:02:40.552Z,5.63
2018-04-22T04:03:40.567Z,5.63
2018-04-22T04:04:40.595Z,5.63
2018-04-22T04:05:40.623Z,5.63
2018-04-22T04:06:40.650Z,5.63
2018-04-22T04:07:40.675Z,5.63
2018-04-22T04:08:40.704Z,5.63
2018-04-22T04:09:40.729Z,11.25
2018-04-22T04:10:40.769Z,11.25
2018-04-22T04:11:40.783Z,11.25
2018-04-22T04:12:40.810Z,5.63
2018-04-22T04:13:40.836Z,5.63
2018-04-22T04:14:40.863Z,11.25
2018-04-22T04:15:40.913Z,5.63
2018-04-22T04:16:40.917Z,5.63
2018-04-22T04:17:40.944Z,5.63
2018-04-22T04:18:40.971Z,11.25
2018-04-22T04:19:40.999Z,11.25
2018-04-22T04:20:41.036Z,11.25
2018-04-22T04:21:41.051Z,11.25
2018-04-22T04:22:41.077Z,11.25
2018-04-22T04:23:41.105Z,11.25
2018-04-22T04:24:41.132Z,11.25
2018-04-22T04:25:41.159Z,11.25
2018-04-22T04:26:41.185Z,11.25
2018-04-22T04:27:41.213Z,11.25
2018-04-22T04:28:41.272Z,11.25
2018-04-22T04:29:41.267Z,11.25
2018-04-22T04:30:41.300Z,11.25
2018-04-22T04:31:41.321Z,11.25
2018-04-22T04:32:41.348Z,11.25
2018-04-22T04:33:41.374Z,11.25
2018-04-22T04:34:41.401Z,11.25
2018-04-22T04:35:41.428Z,11.25
2018-04-22T04:36:41.465Z,11.25
2018-04-22T04:37:41.497Z,11.25
2018-04-22T04:38:41.508Z,16.88
2018-04-22T04:39:41.539Z,16.88
2018-04-22T04:40:41.563Z,16.88
2018-04-22T04:41:41.594Z,11.25
2018-04-22T04:42:41.616Z,11.25
2018-04-22T04:43:41.643Z,11.25
2018-04-22T04:44:41.671Z,11.25
2018-04-22T04:45:41.729Z,11.25
2018-04-22T04:46:41.724Z,11.25
2018-04-22T04:47:41.750Z,11.25
2018-04-22T04:48:41.796Z,11.25
2018-04-22T04:49:41.806Z,11.25
2018-04-22T04:50:41.832Z,11.25
2018-04-22T04:51:41.859Z,11.25
2018-04-22T04:52:41.888Z,11.25
2018-04-22T04:53:41.916Z,11.25
2018-04-22T04:54:41.939Z,11.25
2018-04-22T04:55:41.966Z,11.25
2018-04-22T04:56:41.993Z,11.25
2018-04-22T04:57:42.020Z,11.25
2018-04-22T04:58:42.047Z,11.25
2018-04-22T04:59:42.073Z,11.25
2018-04-22T05:00:42.100Z,11.25
2018-04-22T05:01:42.129Z,11.25
2018-04-22T05:02:42.154Z,11.25
2018-04-22T05:03:42.181Z,11.25
2018-04-22T05:04:42.208Z,16.88
2018-04-22T05:05:42.234Z,16.88
2018-04-22T05:06:42.261Z,16.88
2018-04-22T05:07:42.289Z,16.88
2018-04-22T05:08:42.333Z,22.50
2018-04-22T05:09:42.342Z,22.50
2018-04-22T05:10:42.369Z,22.50
2018-04-22T05:11:42.397Z,22.50
2018-04-22T05:12:42.423Z,28.13
2018-04-22T05:13:42.450Z,28.13
2018-04-22T05:14:42.477Z,22.50
2018-04-22T05:15:42.505Z,22.50
2018-04-22T05:16:42.532Z,22.50
2018-04-22T05:17:42.601Z,22.50
2018-04-22T05:18:42.591Z,28.13
2018-04-22T05:19:42.612Z,22.50
2018-04-22T05:20:42.641Z,28.13
2018-04-22T05:21:42.665Z,33.75
2018-04-22T05:22:42.692Z,39.38
2018-04-22T05:23:42.722Z,45.00
2018-04-22T05:24:42.747Z,45.00
2018-04-22T05:25:42.773Z,45.00
2018-04-22T05:26:42.801Z,39.38
2018-04-22T05:27:42.828Z,56.25
2018-04-22T05:28:42.855Z,56.25
2018-04-22T05:29:42.881Z,56.25
2018-04-22T05:30:42.939Z,56.25
2018-04-22T05:31:42.954Z,50.63
2018-04-22T05:32:42.962Z,50.63
2018-04-22T05:33:42.992Z,50.63
2018-04-22T05:34:43.016Z,50.63
2018-04-22T05:35:43.044Z,50.63
2018-04-22T05:36:43.095Z,50.63
2018-04-22T05:37:43.096Z,50.63
2018-04-22T05:38:43.124Z,39.38
2018-04-22T05:39:43.151Z,39.38
2018-04-22T05:40:43.178Z,45.00
2018-04-22T05:41:43.223Z,45.00
2018-04-22T05:42:43.260Z,39.38
2018-04-22T05:43:43.294Z,39.38
2018-04-22T05:44:43.286Z,33.75
2018-04-22T05:45:43.312Z,39.38
2018-04-22T05:46:43.339Z,45.00
2018-04-22T05:47:43.371Z,45.00
2018-04-22T05:48:43.404Z,45.00
2018-04-22T05:49:43.422Z,45.00
2018-04-22T05:50:43.448Z,45.00
2018-04-22T05:51:43.476Z,45.00
2018-04-22T05:52:43.521Z,45.00
2018-04-22T05:53:43.529Z,39.38
2018-04-22T05:54:43.557Z,28.13
2018-04-22T05:55:43.618Z,28.13
2018-04-22T05:56:43.611Z,28.13
2018-04-22T05:57:43.637Z,22.50
2018-04-22T05:58:43.665Z,28.13
2018-04-22T05:59:43.692Z,28.13
2018-04-22T06:00:43.720Z,33.75
2018-04-22T06:01:43.746Z,39.38
2018-04-22T06:02:43.774Z,45.00
2018-04-22T06:03:43.802Z,33.75
2018-04-22T06:04:43.827Z,33.75
2018-04-22T06:05:43.853Z,39.38
2018-04-22T06:06:43.881Z,45.00
2018-04-22T06:07:43.909Z,45.00
2018-04-22T06:08:43.936Z,45.00
2018-04-22T06:09:43.963Z,50.63
2018-04-22T06:10:43.989Z,56.25
2018-04-22T06:11:44.018Z,45.00
2018-04-22T06:12:44.045Z,39.38
2018-04-22T06:13:44.070Z,33.75
2018-04-22T06:14:44.098Z,39.38
2018-04-22T06:15:44.126Z,45.00
2018-04-22T06:16:44.152Z,56.25
2018-04-22T06:17:44.179Z,61.88
2018-04-22T06:18:44.206Z,56.25
2018-04-22T06:19:44.264Z,50.63
2018-04-22T06:20:44.261Z,50.63
2018-04-22T06:21:44.287Z,50.63
2018-04-22T06:22:44.314Z,39.38
2018-04-22T06:23:44.341Z,33.75
2018-04-22T06:24:44.369Z,33.75
2018-04-22T06:25:44.396Z,45.00
2018-04-22T06:26:44.423Z,56.25
2018-04-22T06:27:44.451Z,56.25
2018-04-22T06:28:44.478Z,67.50
2018-04-22T06:29:44.504Z,67.50
2018-04-22T06:30:44.532Z,61.88
2018-04-22T06:31:44.559Z,56.25
2018-04-22T06:32:44.587Z,56.25
2018-04-22T06:33:44.613Z,56.25
2018-04-22T06:34:44.639Z,50.63
2018-04-22T06:35:44.667Z,45.00
2018-04-22T06:36:44.694Z,33.75
2018-04-22T06:37:44.721Z,33.75
2018-04-22T06:38:44.748Z,33.75
2018-04-22T06:39:44.779Z,33.75
2018-04-22T06:40:44.803Z,33.75
2018-04-22T06:41:44.830Z,39.38
2018-04-22T06:42:44.862Z,45.00
2018-04-22T06:43:44.885Z,50.63
2018-04-22T06:44:44.913Z,50.63
2018-04-22T06:45:44.939Z,50.63
2018-04-22T06:46:44.966Z,56.25
2018-04-22T06:47:44.994Z,56.25
2018-04-22T06:48:45.021Z,45.00
2018-04-22T06:49:45.047Z,39.38
2018-04-22T06:50:45.076Z,39.38
2018-04-22T06:51:45.102Z,39.38
2018-04-22T06:52:45.129Z,39.38
2018-04-22T06:53:45.155Z,39.38
2018-04-22T06:54:45.183Z,45.00
2018-04-22T06:55:45.210Z,39.38
2018-04-22T06:56:45.237Z,45.00
2018-04-22T06:57:45.269Z,56.25
2018-04-22T06:58:45.347Z,61.88
2018-04-22T06:59:45.333Z,56.25
2018-04-22T07:00:45.345Z,56.25
2018-04-22T07:01:45.373Z,56.25
2018-04-22T07:02:45.402Z,50.63
2018-04-22T07:03:45.427Z,56.25
2018-04-22T07:04:45.490Z,61.88
2018-04-22T07:05:45.517Z,67.50
2018-04-22T07:06:45.513Z,61.88
2018-04-22T07:07:45.536Z,61.88
2018-04-22T07:08:45.563Z,61.88
2018-04-22T07:09:45.591Z,56.25
2018-04-22T07:10:45.618Z,50.63
2018-04-22T07:11:45.645Z,56.25
2018-04-22T07:12:45.672Z,56.25
2018-04-22T07:13:45.699Z,61.88
2018-04-22T07:14:45.726Z,67.50
2018-04-22T07:15:45.754Z,61.88
2018-04-22T07:16:45.836Z,67.50
2018-04-22T07:17:45.838Z,73.13
2018-04-22T07:18:45.838Z,56.25
2018-04-22T07:19:45.861Z,45.00
2018-04-22T07:20:45.889Z,39.38
2018-04-22T07:21:45.916Z,39.38
2018-04-22T07:22:45.943Z,39.38
2018-04-22T07:23:45.970Z,45.00
2018-04-22T07:24:45.998Z,45.00
2018-04-22T07:25:46.025Z,39.38
2018-04-22T07:26:46.052Z,33.75
2018-04-22T07:27:46.079Z,33.75
2018-04-22T07:28:46.107Z,33.75
2018-04-22T07:29:46.134Z,33.75
2018-04-22T07:30:46.163Z,28.13
2018-04-22T07:31:46.188Z,33.75
2018-04-22T07:32:46.216Z,39.38
2018-04-22T07:33:46.250Z,33.75
2018-04-22T07:34:46.269Z,33.75
2018-04-22T07:35:46.307Z,39.38
2018-04-22T07:36:46.325Z,45.00
2018-04-22T07:37:46.360Z,39.38
2018-04-22T07:38:46.378Z,39.38
2018-04-22T07:39:46.410Z,39.38
2018-04-22T07:40:46.468Z,45.00
2018-04-22T07:41:46.463Z,50.63
2018-04-22T07:42:46.487Z,50.63
2018-04-22T07:43:46.514Z,45.00
2018-04-22T07:44:46.542Z,45.00
2018-04-22T07:45:46.567Z,45.00
2018-04-22T07:46:46.630Z,50.63
2018-04-22T07:47:46.625Z,56.25
2018-04-22T07:48:46.650Z,56.25
2018-04-22T07:49:46.677Z,56.25
2018-04-22T07:50:46.703Z,61.88
2018-04-22T07:51:46.731Z,61.88
2018-04-22T07:52:46.758Z,67.50
2018-04-22T07:53:46.785Z,67.50
2018-04-22T07:54:46.823Z,67.50
2018-04-22T07:55:46.840Z,67.50
2018-04-22T07:56:46.867Z,61.88
2018-04-22T07:57:46.893Z,56.25
2018-04-22T07:58:46.921Z,45.00
2018-04-22T07:59:46.949Z,45.00
2018-04-22T08:00:47.012Z,45.00
2018-04-22T08:01:47.003Z,45.00
2018-04-22T08:02:47.030Z,45.00
2018-04-22T08:03:47.061Z,45.00
2018-04-22T08:04:47.086Z,39.38
2018-04-22T08:05:47.112Z,39.38
2018-04-22T08:06:47.187Z,33.75
2018-04-22T08:07:47.166Z,33.75
2018-04-22T08:08:47.193Z,33.75
2018-04-22T08:09:47.220Z,33.75
2018-04-22T08:10:47.280Z,33.75
2018-04-22T08:11:47.275Z,33.75
2018-04-22T08:12:47.304Z,33.75
2018-04-22T08:13:47.329Z,33.75
2018-04-22T08:14:47.357Z,33.75
2018-04-22T08:15:47.384Z,33.75
2018-04-22T08:16:47.412Z,39.38
2018-04-22T08:17:47.438Z,39.38
2018-04-22T08:18:47.503Z,39.38
2018-04-22T08:19:47.493Z,39.38
2018-04-22T08:20:47.521Z,39.38
2018-04-22T08:21:47.562Z,39.38
2018-04-22T08:22:47.574Z,39.38
2018-04-22T08:23:47.602Z,39.38
2018-04-22T08:24:47.630Z,39.38
2018-04-22T08:25:47.656Z,39.38
2018-04-22T08:26:47.683Z,39.38
2018-04-22T08:27:47.710Z,33.75
2018-04-22T08:28:47.739Z,39.38
2018-04-22T08:29:47.765Z,39.38
2018-04-22T08:30:47.792Z,39.38
2018-04-22T08:31:47.819Z,33.75
2018-04-22T08:32:47.847Z,39.38
2018-04-22T08:33:47.873Z,39.38
2018-04-22T08:34:47.901Z,39.38
2018-04-22T08:35:47.931Z,39.38
2018-04-22T08:36:47.958Z,39.38
2018-04-22T08:37:47.981Z,39.38
2018-04-22T08:38:48.009Z,39.38
2018-04-22T08:39:48.037Z,39.38
2018-04-22T08:40:48.064Z,39.38
2018-04-22T08:41:48.090Z,45.00
2018-04-22T08:42:48.118Z,45.00
2018-04-22T08:43:48.144Z,45.00
2018-04-22T08:44:48.173Z,45.00
2018-04-22T08:45:48.200Z,39.38
2018-04-22T08:46:48.228Z,39.38
2018-04-22T08:47:48.254Z,39.38
2018-04-22T08:48:48.281Z,39.38
2018-04-22T08:49:48.311Z,39.38
2018-04-22T08:50:48.335Z,45.00
2018-04-22T08:51:48.362Z,45.00
2018-04-22T08:52:48.391Z,39.38
2018-04-22T08:53:48.417Z,39.38
2018-04-22T08:54:48.445Z,39.38
2018-04-22T08:55:48.474Z,39.38
2018-04-22T08:56:48.509Z,39.38
2018-04-22T08:57:48.527Z,39.38
2018-04-22T08:58:48.552Z,39.38
2018-04-22T08:59:48.582Z,39.38
2018-04-22T09:00:48.607Z,39.38
2018-04-22T09:01:48.638Z,39.38
2018-04-22T09:02:48.661Z,39.38
2018-04-22T09:03:48.727Z,39.38
2018-04-22T09:04:48.716Z,39.38
2018-04-22T09:05:48.774Z,39.38
2018-04-22T09:06:48.770Z,39.38
2018-04-22T09:07:48.800Z,39.38
2018-04-22T09:08:48.826Z,33.75
2018-04-22T09:09:48.851Z,33.75
2018-04-22T09:10:48.884Z,33.75
2018-04-22T09:11:48.909Z,33.75
2018-04-22T09:12:48.934Z,39.38
2018-04-22T09:13:48.960Z,39.38
2018-04-22T09:14:48.987Z,33.75
2018-04-22T09:15:49.018Z,33.75
2018-04-22T09:16:49.043Z,33.75
2018-04-22T09:17:49.100Z,33.75
2018-04-22T09:18:49.097Z,33.75
2018-04-22T09:19:49.123Z,33.75
2018-04-22T09:20:49.151Z,28.13
2018-04-22T09:21:49.178Z,28.13
2018-04-22T09:22:49.205Z,28.13
2018-04-22T09:23:49.238Z,28.13
2018-04-22T09:24:49.263Z,28.13
2018-04-22T09:25:49.287Z,33.75
2018-04-22T09:26:49.314Z,33.75
2018-04-22T09:27:49.351Z,33.75
2018-04-22T09:28:49.368Z,33.75
2018-04-22T09:29:49.395Z,33.75
2018-04-22T09:30:49.422Z,33.75
2018-04-22T09:31:49.449Z,28.13
2018-04-22T09:32:49.483Z,28.13
2018-04-22T09:33:49.505Z,28.13
2018-04-22T09:34:49.531Z,28.13
2018-04-22T09:35:49.558Z,28.13
2018-04-22T09:36:49.620Z,28.13
2018-04-22T09:37:49.613Z,33.75
2018-04-22T09:38:49.659Z,33.75
2018-04-22T09:39:49.667Z,33.75
2018-04-22T09:40:49.694Z,33.75
2018-04-22T09:41:49.720Z,39.38
2018-04-22T09:42:49.749Z,39.38
2018-04-22T09:43:49.775Z,39.38
2018-04-22T09:44:49.803Z,39.38
2018-04-22T09:45:49.863Z,39.38
2018-04-22T09:46:49.861Z,33.75
2018-04-22T09:47:49.900Z,33.75
2018-04-22T09:48:49.911Z,33.75
2018-04-22T09:49:49.991Z,39.38
2018-04-22T09:50:49.965Z,39.38
2018-04-22T09:51:49.992Z,45.00
2018-04-22T09:52:50.020Z,45.00
2018-04-22T09:53:50.046Z,39.38
2018-04-22T09:54:50.074Z,33.75
2018-04-22T09:55:50.101Z,33.75
2018-04-22T09:56:50.129Z,33.75
2018-04-22T09:57:50.155Z,39.38
2018-04-22T09:58:50.182Z,39.38
2018-04-22T09:59:50.209Z,45.00
2018-04-22T10:00:50.237Z,45.00
2018-04-22T10:01:50.263Z,45.00
2018-04-22T10:02:50.291Z,39.38
2018-04-22T10:03:50.318Z,39.38
2018-04-22T10:04:50.398Z,39.38
2018-04-22T10:05:50.372Z,39.38
2018-04-22T10:06:50.400Z,39.38
2018-04-22T10:07:50.426Z,33.75
2018-04-22T10:08:50.454Z,39.38
2018-04-22T10:09:50.480Z,39.38
2018-04-22T10:10:50.511Z,39.38
2018-04-22T10:11:50.553Z,39.38
2018-04-22T10:12:50.562Z,39.38
2018-04-22T10:13:50.603Z,39.38
2018-04-22T10:14:50.617Z,45.00
2018-04-22T10:15:50.645Z,50.63
2018-04-22T10:16:50.692Z,50.63
2018-04-22T10:17:50.698Z,45.00
2018-04-22T10:18:50.759Z,45.00
2018-04-22T10:19:50.752Z,45.00
2018-04-22T10:20:50.780Z,45.00
2018-04-22T10:21:50.808Z,39.38
2018-04-22T10:22:50.834Z,39.38
2018-04-22T10:23:50.901Z,39.38
2018-04-22T10:24:50.889Z,45.00
2018-04-22T10:25:50.952Z,45.00
2018-04-22T10:26:50.977Z,45.00
2018-04-22T10:27:50.971Z,45.00
2018-04-22T10:28:50.998Z,39.38
2018-04-22T10:29:51.024Z,39.38
2018-04-22T10:30:51.053Z,39.38
2018-04-22T10:31:51.079Z,39.38
2018-04-22T10:32:51.106Z,39.38
2018-04-22T10:33:51.133Z,39.38
2018-04-22T10:34:51.160Z,39.38
2018-04-22T10:35:51.189Z,39.38
2018-04-22T10:36:51.214Z,39.38
2018-04-22T10:37:51.241Z,39.38
2018-04-22T10:38:51.268Z,39.38
2018-04-22T10:39:51.297Z,45.00
2018-04-22T10:40:51.323Z,45.00
2018-04-22T10:41:51.350Z,45.00
2018-04-22T10:42:51.379Z,39.38
2018-04-22T10:43:51.405Z,39.38
2018-04-22T10:44:51.434Z,39.38
2018-04-22T10:45:51.459Z,39.38
2018-04-22T10:46:51.486Z,39.38
2018-04-22T10:47:51.514Z,39.38
2018-04-22T10:48:51.578Z,39.38
2018-04-22T10:49:51.568Z,39.38
2018-04-22T10:50:51.595Z,39.38
2018-04-22T10:51:51.622Z,39.38
2018-04-22T10:52:51.650Z,39.38
2018-04-22T10:53:51.676Z,39.38
2018-04-22T10:54:51.706Z,33.75
2018-04-22T10:55:51.731Z,39.38
2018-04-22T10:56:51.771Z,45.00
2018-04-22T10:57:51.829Z,45.00
2018-04-22T10:58:51.812Z,45.00
2018-04-22T10:59:51.872Z,39.38
2018-04-22T11:00:51.866Z,39.38
2018-04-22T11:01:51.916Z,39.38
2018-04-22T11:02:51.921Z,39.38
2018-04-22T11:03:51.950Z,39.38
2018-04-22T11:04:51.975Z,45.00
2018-04-22T11:05:52.002Z,45.00
2018-04-22T11:06:52.029Z,39.38
2018-04-22T11:07:52.061Z,39.38
2018-04-22T11:08:52.084Z,39.38
2018-04-22T11:09:52.156Z,39.38
2018-04-22T11:10:52.139Z,39.38
2018-04-22T11:11:52.166Z,45.00
2018-04-22T11:12:52.193Z,50.63
2018-04-22T11:13:52.220Z,45.00
2018-04-22T11:14:52.287Z,45.00
2018-04-22T11:15:52.304Z,45.00
2018-04-22T11:16:52.302Z,45.00
2018-04-22T11:17:52.329Z,45.00
2018-04-22T11:18:52.355Z,45.00
2018-04-22T11:19:52.383Z,45.00
2018-04-22T11:20:52.423Z,45.00
2018-04-22T11:21:52.436Z,45.00
2018-04-22T11:22:52.464Z,39.38
2018-04-22T11:23:52.491Z,39.38
2018-04-22T11:24:52.519Z,33.75
2018-04-22T11:25:52.561Z,39.38
2018-04-22T11:26:52.610Z,45.00
2018-04-22T11:27:52.601Z,45.00
2018-04-22T11:28:52.628Z,45.00
2018-04-22T11:29:52.655Z,50.63
2018-04-22T11:30:52.712Z,50.63
2018-04-22T11:31:52.710Z,50.63
2018-04-22T11:32:52.736Z,45.00
2018-04-22T11:33:52.769Z,45.00
2018-04-22T11:34:52.796Z,45.00
2018-04-22T11:35:52.818Z,50.63
2018-04-22T11:36:52.847Z,45.00
2018-04-22T11:37:52.875Z,45.00
2018-04-22T11:38:52.899Z,45.00
2018-04-22T11:39:52.927Z,45.00
2018-04-22T11:40:52.954Z,45.00
2018-04-22T11:41:52.981Z,45.00
2018-04-22T11:42:53.012Z,45.00
2018-04-22T11:43:53.036Z,45.00
2018-04-22T11:44:53.064Z,39.38
2018-04-22T11:45:53.114Z,39.38
2018-04-22T11:46:53.120Z,39.38
2018-04-22T11:47:53.148Z,39.38
2018-04-22T11:48:53.194Z,39.38
2018-04-22T11:49:53.199Z,39.38
2018-04-22T11:50:53.227Z,39.38
2018-04-22T11:51:53.256Z,39.38
2018-04-22T11:52:53.282Z,39.38
2018-04-22T11:53:53.309Z,39.38
2018-04-22T11:54:53.336Z,39.38
2018-04-22T11:55:53.362Z,39.38
2018-04-22T11:56:53.390Z,50.63
2018-04-22T11:57:53.416Z,50.63
2018-04-22T11:58:53.444Z,50.63
2018-04-22T11:59:53.531Z,45.00
2018-04-22T12:00:53.499Z,45.00
2018-04-22T12:01:53.525Z,45.00
2018-04-22T12:02:53.553Z,45.00
2018-04-22T12:03:53.585Z,45.00
2018-04-22T12:04:53.612Z,45.00
2018-04-22T12:05:53.635Z,45.00
2018-04-22T12:06:53.664Z,39.38
2018-04-22T12:07:53.689Z,45.00
2018-04-22T12:08:53.718Z,45.00
2018-04-22T12:09:53.743Z,39.38
2018-04-22T12:10:53.775Z,39.38
2018-04-22T12:11:53.799Z,33.75
2018-04-22T12:12:53.826Z,39.38
2018-04-22T12:13:53.853Z,39.38
2018-04-22T12:14:53.880Z,39.38
2018-04-22T12:15:53.907Z,39.38
2018-04-22T12:16:53.936Z,39.38
2018-04-22T12:17:53.963Z,45.00
2018-04-22T12:18:53.989Z,45.00
2018-04-22T12:19:54.016Z,45.00
2018-04-22T12:20:54.044Z,45.00
2018-04-22T12:21:54.070Z,39.38
2018-04-22T12:22:54.098Z,39.38
2018-04-22T12:23:54.154Z,39.38
2018-04-22T12:24:54.153Z,39.38
2018-04-22T12:25:54.179Z,39.38
2018-04-22T12:26:54.206Z,39.38
2018-04-22T12:27:54.234Z,39.38
2018-04-22T12:28:54.262Z,39.38
2018-04-22T12:29:54.313Z,33.75
2018-04-22T12:30:54.336Z,39.38
2018-04-22T12:31:54.393Z,39.38
2018-04-22T12:32:54.409Z,33.75
2018-04-22T12:33:54.398Z,39.38
2018-04-22T12:34:54.425Z,39.38
2018-04-22T12:35:54.452Z,39.38
2018-04-22T12:36:54.482Z,45.00
2018-04-22T12:37:54.535Z,39.38
2018-04-22T12:38:54.534Z,39.38
2018-04-22T12:39:54.560Z,33.75
2018-04-22T12:40:54.589Z,33.75
2018-04-22T12:41:54.618Z,33.75
2018-04-22T12:42:54.648Z,33.75
2018-04-22T12:43:54.670Z,33.75
2018-04-22T12:44:54.697Z,33.75
2018-04-22T12:45:54.723Z,33.75
2018-04-22T12:46:54.752Z,33.75
2018-04-22T12:47:54.817Z,33.75
2018-04-22T12:48:54.805Z,33.75
2018-04-22T12:49:54.833Z,33.75
2018-04-22T12:50:54.863Z,33.75
2018-04-22T12:51:54.888Z,39.38
2018-04-22T12:52:54.915Z,33.75
2018-04-22T12:53:54.943Z,33.75
2018-04-22T12:54:54.969Z,33.75
2018-04-22T12:55:55.006Z,33.75
2018-04-22T12:56:55.023Z,33.75
2018-04-22T12:57:55.050Z,33.75
2018-04-22T12:58:55.078Z,33.75
2018-04-22T12:59:55.105Z,33.75
2018-04-22T13:00:55.132Z,33.75